Time;durP1;ratioP1;P1;durP2;ratioP2;P2;SDS_P1;SDS_P2;PMS_P1;PMS_P2;Temp;Humidity;BMP_temperature;BMP_pressure;BME280_temperature;BME280_humidity;BME280_pressure;Samples;Min_cycle;Max_cycle;Signal;HPM_P1;HPM_P2
2022/10/25 00:01:47;;;;;;;5.50;3.13;;;22.90;99.90;;;;;;5073828;28;20775;-74
2022/10/25 00:04:15;;;;;;;6.90;2.77;;;22.90;99.90;;;;;;5073939;28;20274;-76
2022/10/25 00:06:43;;;;;;;7.40;2.73;;;22.70;99.90;;;;;;5090388;28;20254;-73
2022/10/25 00:09:10;;;;;;;5.40;2.50;;;22.80;99.90;;;;;;5094137;28;20185;-73
2022/10/25 00:11:38;;;;;;;6.07;2.40;;;22.90;99.90;;;;;;5080040;28;20241;-72
2022/10/25 00:14:06;;;;;;;6.27;3.40;;;22.90;99.90;;;;;;5092127;28;20273;-72
2022/10/25 00:16:37;;;;;;;9.27;4.33;;;22.90;99.90;;;;;;5094509;28;20186;-73
2022/10/25 00:19:07;;;;;;;10.00;5.23;;;23.30;99.90;;;;;;5092766;28;20179;-73
2022/10/25 00:21:34;;;;;;;10.27;5.23;;;23.90;99.90;;;;;;5077684;28;20641;-72
2022/10/25 00:24:01;;;;;;;8.93;4.43;;;24.20;99.90;;;;;;5076328;28;20626;-78
2022/10/25 00:26:29;;;;;;;7.13;4.30;;;24.40;99.90;;;;;;5093505;28;20240;-78
2022/10/25 00:28:56;;;;;;;7.13;3.57;;;25.20;99.90;;;;;;5093793;28;20178;-76
2022/10/25 00:31:24;;;;;;;7.00;2.77;;;26.00;99.90;;;;;;5092181;28;20175;-73
2022/10/25 00:33:51;;;;;;;8.70;2.60;;;25.80;99.90;;;;;;5093532;28;20600;-74
2022/10/25 00:36:20;;;;;;;5.97;2.50;;;25.70;99.90;;;;;;5093382;28;20175;-74
2022/10/25 00:38:48;;;;;;;2.53;1.90;;;25.80;99.90;;;;;;5073217;28;20650;-74
2022/10/25 00:41:18;;;;;;;7.30;2.30;;;26.00;99.90;;;;;;5063062;28;20566;-75
2022/10/25 00:43:54;;;;;;;3.23;2.20;;;25.80;99.90;;;;;;5083949;28;20245;-74
2022/10/25 00:46:27;;;;;;;7.00;2.00;;;25.90;99.90;;;;;;5073056;28;20184;-73
2022/10/25 00:49:02;;;;;;;7.70;1.90;;;26.10;99.90;;;;;;5055222;28;20199;-74
2022/10/25 00:51:39;;;;;;;2.43;1.80;;;26.30;99.90;;;;;;5073019;28;20172;-75
2022/10/25 00:54:10;;;;;;;6.03;2.00;;;26.10;99.90;;;;;;5090068;28;20187;-73
2022/10/25 00:56:40;;;;;;;4.33;2.00;;;26.10;99.90;;;;;;5092902;28;20258;-73
2022/10/25 00:59:13;;;;;;;9.07;2.13;;;26.10;99.90;;;;;;5093167;28;20179;-73
2022/10/25 01:01:41;;;;;;;5.27;2.00;;;26.00;99.90;;;;;;5090845;28;20238;-73
2022/10/25 01:04:12;;;;;;;10.70;1.90;;;26.00;99.90;;;;;;5092963;28;20641;-73
2022/10/25 01:06:47;;;;;;;8.07;1.60;;;26.20;99.90;;;;;;5092927;28;20266;-73
2022/10/25 01:09:24;;;;;;;2.50;1.67;;;26.40;99.90;;;;;;5092804;28;20178;-73
2022/10/25 01:11:52;;;;;;;5.40;1.83;;;26.80;99.90;;;;;;5073960;28;20183;-73
2022/10/25 01:14:20;;;;;;;4.83;1.97;;;26.90;99.90;;;;;;5056607;28;20195;-76
2022/10/25 01:17:10;;;;;;;4.33;1.90;;;26.40;99.90;;;;;;5077737;28;20191;-73
2022/10/25 01:19:50;;;;;;;5.90;1.63;;;26.40;99.90;;;;;;5092733;28;20183;-75
2022/10/25 01:22:21;;;;;;;7.30;2.53;;;26.40;99.90;;;;;;5072377;28;20700;-75
2022/10/25 01:25:03;;;;;;;4.37;2.13;;;26.20;99.90;;;;;;5054322;28;20660;-73
2022/10/25 01:27:54;;;;;;;11.77;3.50;;;25.90;99.90;;;;;;5076177;28;20183;-73
2022/10/25 01:30:50;;;;;;;6.47;2.17;;;25.70;99.90;;;;;;5087158;28;20545;-74
2022/10/25 01:33:28;;;;;;;4.03;2.20;;;26.00;99.90;;;;;;5043470;28;20298;-73
2022/10/25 01:36:10;;;;;;;3.90;2.03;;;26.00;99.90;;;;;;5072172;28;20685;-73
2022/10/25 01:39:02;;;;;;;3.03;2.10;;;26.20;99.90;;;;;;5072326;28;20179;-74
2022/10/25 01:41:39;;;;;;;3.43;1.90;;;26.50;99.90;;;;;;5086062;28;20207;-74
2022/10/25 01:44:24;;;;;;;4.00;1.53;;;26.70;99.90;;;;;;5091331;28;20183;-73
2022/10/25 01:47:10;;;;;;;6.10;1.70;;;26.60;99.90;;;;;;5092340;28;20176;-73
2022/10/25 01:49:57;;;;;;;2.97;1.50;;;26.30;99.90;;;;;;5092439;28;20658;-74
2022/10/25 01:52:26;;;;;;;4.23;1.83;;;26.00;99.90;;;;;;5071997;28;20195;-74
2022/10/25 01:54:54;;;;;;;1.50;1.20;;;26.00;99.90;;;;;;5071931;28;20171;-73
2022/10/25 01:57:44;;;;;;;2.17;1.60;;;25.90;99.90;;;;;;5086778;28;20179;-73
2022/10/25 02:00:20;;;;;;;3.70;1.67;;;25.80;99.90;;;;;;5088548;28;20180;-73
2022/10/25 02:02:53;;;;;;;2.27;1.80;;;25.70;99.90;;;;;;5071752;28;20215;-73
2022/10/25 02:05:52;;;;;;;4.93;1.77;;;25.60;99.90;;;;;;5071063;28;20179;-73
2022/10/25 02:08:27;;;;;;;4.33;2.03;;;25.50;99.90;;;;;;5092098;28;20214;-73
2022/10/25 02:11:24;;;;;;;5.37;2.40;;;25.50;99.90;;;;;;5091616;28;20269;-74
2022/10/25 02:14:08;;;;;;;3.60;1.50;;;25.60;99.90;;;;;;5086548;28;20548;-74
2022/10/25 02:16:45;;;;;;;4.33;1.40;;;25.90;99.90;;;;;;5071631;28;20179;-74
2022/10/25 02:19:29;;;;;;;4.70;1.90;;;26.00;99.90;;;;;;5071689;28;20180;-75
2022/10/25 02:21:58;;;;;;;2.37;1.50;;;26.10;99.90;;;;;;5073943;28;20224;-73
2022/10/25 02:24:30;;;;;;;6.70;1.50;;;26.00;99.90;;;;;;5072897;28;20584;-73
2022/10/25 02:26:58;;;;;;;5.23;1.60;;;25.80;99.90;;;;;;5091856;28;20189;-73
2022/10/25 02:29:30;;;;;;;2.07;1.10;;;25.90;99.90;;;;;;5091890;28;20806;-72
2022/10/25 02:31:58;;;;;;;4.30;1.70;;;26.00;99.90;;;;;;5091576;28;20174;-73
2022/10/25 02:34:25;;;;;;;1.77;1.37;;;26.00;99.90;;;;;;5082773;28;20180;-73
2022/10/25 02:36:53;;;;;;;3.47;1.27;;;26.20;99.90;;;;;;5071606;28;20182;-74
2022/10/25 02:39:23;;;;;;;2.07;1.23;;;26.20;99.90;;;;;;5071547;28;20198;-74
2022/10/25 02:41:50;;;;;;;4.17;1.47;;;26.40;99.90;;;;;;5071289;28;20199;-73
2022/10/25 02:44:18;;;;;;;1.80;1.30;;;26.70;99.90;;;;;;5057035;28;20538;-76
2022/10/25 02:46:45;;;;;;;3.37;1.30;;;26.90;99.90;;;;;;5091703;28;20270;-73
2022/10/25 02:49:13;;;;;;;1.93;1.47;;;26.90;99.90;;;;;;5091553;28;20183;-75
2022/10/25 02:51:40;;;;;;;2.23;1.10;;;27.00;99.90;;;;;;5088834;28;20188;-75
2022/10/25 02:54:08;;;;;;;1.93;1.70;;;26.80;99.90;;;;;;5073928;28;20192;-74
2022/10/25 02:56:37;;;;;;;1.97;1.40;;;27.00;99.90;;;;;;5094921;28;20290;-73
2022/10/25 02:59:04;;;;;;;2.67;1.63;;;27.30;99.90;;;;;;5095454;28;20222;-73
2022/10/25 03:01:32;;;;;;;1.87;1.37;;;27.50;99.90;;;;;;5094949;28;20239;-73
2022/10/25 03:03:59;;;;;;;1.67;1.57;;;28.00;99.90;;;;;;5093089;28;20175;-75
2022/10/25 03:06:26;;;;;;;5.90;1.80;;;28.50;99.90;;;;;;5074298;28;20646;-73
2022/10/25 03:08:54;;;;;;;2.00;1.20;;;28.70;99.90;;;;;;5075095;28;20548;-73
2022/10/25 03:11:21;;;;;;;1.97;1.20;;;28.80;99.90;;;;;;5074884;28;20176;-72
2022/10/25 03:13:49;;;;;;;2.90;1.43;;;28.80;99.90;;;;;;5074758;28;20187;-73
2022/10/25 03:16:16;;;;;;;1.57;1.10;;;28.80;99.90;;;;;;5095033;28;20191;-73
2022/10/25 03:18:43;;;;;;;5.50;1.57;;;28.70;99.90;;;;;;5095160;28;20224;-72
2022/10/25 03:21:11;;;;;;;3.33;1.80;;;28.90;99.90;;;;;;5080005;28;20180;-74
2022/10/25 03:23:38;;;;;;;9.07;1.70;;;28.90;99.90;;;;;;5074712;28;20263;-73
2022/10/25 03:26:06;;;;;;;3.80;1.40;;;29.00;99.90;;;;;;5075019;28;20179;-74
2022/10/25 03:28:33;;;;;;;1.20;1.10;;;29.10;99.90;;;;;;5094286;28;20183;-75
2022/10/25 03:31:01;;;;;;;2.63;1.83;;;29.20;99.90;;;;;;5077061;28;20613;-78
2022/10/25 03:33:28;;;;;;;2.23;1.57;;;28.90;99.90;;;;;;5093419;28;20267;-77
2022/10/25 03:35:56;;;;;;;2.30;1.70;;;29.10;99.90;;;;;;5076227;28;20249;-77
2022/10/25 03:38:23;;;;;;;1.70;1.60;;;29.00;99.90;;;;;;5074530;28;20183;-77
2022/10/25 03:40:51;;;;;;;1.87;1.27;;;29.40;99.90;;;;;;5074521;28;20232;-77
2022/10/25 03:43:18;;;;;;;2.30;1.70;;;29.70;99.90;;;;;;5074205;28;20252;-77
2022/10/25 03:45:45;;;;;;;2.80;1.53;;;29.90;99.90;;;;;;5094471;28;20653;-77
2022/10/25 03:48:14;;;;;;;3.43;1.50;;;30.00;99.90;;;;;;5088988;28;20661;-78
2022/10/25 03:50:41;;;;;;;2.10;1.90;;;30.10;99.90;;;;;;5074367;28;20506;-78
2022/10/25 03:53:10;;;;;;;2.30;2.10;;;29.80;99.90;;;;;;5056283;28;20246;-78
2022/10/25 03:55:38;;;;;;;2.80;2.10;;;29.70;99.90;;;;;;5093184;28;20187;-77
2022/10/25 04:01:27;;;;;;;2.63;2.10;;;29.70;99.90;;;;;;5093147;28;20249;-78
2022/10/25 04:03:58;;;;;;;3.23;2.17;;;30.20;99.90;;;;;;5091778;28;20684;-78
2022/10/25 04:06:26;;;;;;;2.07;1.97;;;30.30;99.90;;;;;;5072897;28;20207;-77
2022/10/25 04:12:16;;;;;;;2.80;1.70;;;30.40;99.90;;;;;;5093581;28;20684;-77
2022/10/25 04:14:45;;;;;;;2.70;2.13;;;30.50;99.90;;;;;;5093415;28;20273;-78
2022/10/25 04:17:12;;;;;;;1.67;1.43;;;30.40;99.90;;;;;;5093910;28;20180;-77
2022/10/25 04:19:40;;;;;;;2.77;1.63;;;30.10;99.90;;;;;;5075730;28;20185;-77
2022/10/25 04:22:07;;;;;;;2.73;1.80;;;29.60;99.90;;;;;;5093704;28;20306;-77
2022/10/25 04:24:34;;;;;;;1.50;1.40;;;29.10;99.90;;;;;;5084874;28;20244;-77
2022/10/25 04:27:02;;;;;;;2.50;1.27;;;28.60;99.90;;;;;;5075238;28;20191;-77
2022/10/25 04:29:29;;;;;;;3.70;1.63;;;28.30;99.90;;;;;;5093529;28;20214;-77
2022/10/25 04:31:57;;;;;;;2.13;1.50;;;27.90;99.90;;;;;;5093427;28;20179;-77
2022/10/25 04:34:24;;;;;;;3.53;1.20;;;27.70;99.90;;;;;;5075199;28;20190;-77
2022/10/25 04:36:51;;;;;;;1.67;1.40;;;27.60;99.90;;;;;;5081877;28;20297;-77
2022/10/25 04:39:19;;;;;;;2.83;1.93;;;27.30;99.90;;;;;;5073438;28;20213;-77
2022/10/25 04:41:46;;;;;;;3.17;1.20;;;27.10;99.90;;;;;;5073071;28;20211;-78
2022/10/25 04:44:13;;;;;;;6.10;1.20;;;26.30;99.90;;;;;;5073243;28;20168;-77
2022/10/25 04:46:41;;;;;;;10.63;1.50;;;24.20;99.90;;;;;;5081442;28;20562;-77
2022/10/25 04:56:06;;;;;;;5.03;1.90;;;20.60;99.90;;;;;;5092844;28;20299;-81
2022/10/25 04:58:34;;;;;;;5.93;2.40;;;20.10;99.90;;;;;;5072886;28;20229;-81
2022/10/25 05:01:04;;;;;;;5.23;1.40;;;19.70;99.90;;;;;;5078694;28;20225;-81
2022/10/25 05:03:32;;;;;;;3.70;2.20;;;19.50;99.90;;;;;;5090368;28;20214;-80
2022/10/25 05:06:08;;;;;;;7.90;3.03;;;19.50;99.90;;;;;;5092512;28;20182;-78
2022/10/25 05:08:45;;;;;;;6.13;2.53;;;19.60;99.90;;;;;;5093095;28;20700;-78
2022/10/25 05:11:14;;;;;;;8.03;2.77;;;19.60;99.90;;;;;;5093076;28;20206;-80
2022/10/25 05:13:44;;;;;;;8.97;2.47;;;19.60;99.90;;;;;;5074792;28;20732;-79
2022/10/25 05:16:20;;;;;;;5.97;2.40;;;19.90;99.90;;;;;;5076115;28;20237;-80
2022/10/25 05:18:48;;;;;;;4.30;1.77;;;20.10;99.90;;;;;;5092495;28;20266;-78
2022/10/25 05:21:17;;;;;;;4.90;1.60;;;19.90;99.90;;;;;;5092749;28;20186;-78
2022/10/25 05:23:45;;;;;;;4.17;1.80;;;19.90;99.90;;;;;;5092810;28;20280;-78
2022/10/25 05:29:34;;;;;;;2.97;1.60;;;20.00;99.90;;;;;;5092081;28;20185;-75
2022/10/25 05:32:02;;;;;;;4.63;2.00;;;20.30;99.90;;;;;;5092351;28;20214;-78
2022/10/25 05:37:52;;;;;;;7.43;2.13;;;20.60;99.90;;;;;;5092009;28;20186;-77
2022/10/25 05:40:19;;;;;;;5.30;1.83;;;20.60;99.90;;;;;;5087803;28;20190;-76
2022/10/25 05:42:46;;;;;;;6.23;1.57;;;20.70;99.90;;;;;;5092316;28;20229;-76
2022/10/25 05:45:14;;;;;;;4.10;1.73;;;20.80;99.90;;;;;;5092416;28;20171;-77
2022/10/25 05:47:41;;;;;;;3.17;1.50;;;20.90;99.90;;;;;;5090524;28;20183;-76
2022/10/25 05:50:09;;;;;;;3.43;1.73;;;21.30;99.90;;;;;;5074145;28;20256;-76
2022/10/25 05:52:36;;;;;;;5.20;1.90;;;21.50;99.90;;;;;;5073592;28;20202;-76
2022/10/25 05:55:04;;;;;;;2.30;1.80;;;21.70;99.90;;;;;;5092167;28;20174;-76
2022/10/25 05:57:32;;;;;;;6.33;1.73;;;22.40;99.90;;;;;;5076899;28;20621;-76
2022/10/25 05:59:59;;;;;;;3.00;1.67;;;22.70;99.90;;;;;;5071771;28;20184;-76
2022/10/25 06:02:26;;;;;;;10.13;2.07;;;23.20;99.90;;;;;;5071645;28;20258;-76
2022/10/25 06:04:54;;;;;;;2.93;1.20;;;23.60;99.90;;;;;;5071776;28;20354;-76
2022/10/25 06:07:21;;;;;;;2.30;1.37;;;23.80;99.90;;;;;;5077644;28;20187;-77
2022/10/25 06:09:49;;;;;;;4.33;1.10;;;23.90;99.90;;;;;;5071757;28;20275;-77
2022/10/25 06:12:16;;;;;;;2.53;1.37;;;23.90;99.90;;;;;;5085079;28;20207;-77
2022/10/25 06:14:43;;;;;;;1.70;1.23;;;23.70;99.90;;;;;;5091734;28;20230;-76
2022/10/25 06:17:12;;;;;;;1.73;1.40;;;23.60;99.90;;;;;;5091880;28;20198;-76
2022/10/25 06:19:40;;;;;;;3.50;1.43;;;23.60;99.90;;;;;;5073632;28;20179;-77
2022/10/25 06:22:07;;;;;;;4.10;1.37;;;23.90;99.90;;;;;;5073392;28;20229;-77
2022/10/25 06:24:34;;;;;;;3.10;1.30;;;24.00;99.90;;;;;;5091687;28;20186;-78
2022/10/25 06:27:02;;;;;;;2.33;1.10;;;24.00;99.90;;;;;;5091797;28;20193;-77
2022/10/25 06:32:53;;;;;;;4.90;1.63;;;24.00;99.90;;;;;;5094387;28;20221;-77
2022/10/25 06:35:20;;;;;;;6.37;1.60;;;24.10;99.90;;;;;;5098389;28;20244;-78
2022/10/25 06:37:47;;;;;;;4.47;1.90;;;24.20;99.90;;;;;;5098366;28;20257;-78
2022/10/25 06:40:15;;;;;;;2.13;1.70;;;24.30;99.90;;;;;;5084810;28;20562;-78
2022/10/25 06:42:42;;;;;;;4.23;1.40;;;24.30;99.90;;;;;;5089170;28;20323;-77
2022/10/25 06:45:10;;;;;;;6.73;1.73;;;24.60;99.90;;;;;;5089068;28;20190;-75
2022/10/25 06:47:39;;;;;;;9.50;2.20;;;24.60;99.90;;;;;;5069220;28;20191;-74
2022/10/25 06:50:06;;;;;;;5.13;1.97;;;24.70;99.90;;;;;;5069495;28;20191;-78
2022/10/25 06:52:34;;;;;;;4.20;1.70;;;24.60;99.90;;;;;;5088571;28;20187;-75
2022/10/25 06:55:01;;;;;;;6.37;1.90;;;24.80;99.90;;;;;;5071871;28;20265;-78
2022/10/25 06:57:28;;;;;;;2.00;1.60;;;24.90;99.90;;;;;;5091119;28;20159;-76
2022/10/25 06:59:56;;;;;;;3.87;1.70;;;25.00;99.90;;;;;;5091987;28;20253;-77
2022/10/25 07:02:23;;;;;;;1.80;1.30;;;25.20;99.90;;;;;;5095253;28;20254;-78
2022/10/25 07:04:50;;;;;;;2.33;1.43;;;25.20;99.90;;;;;;5112647;28;20266;-77
2022/10/25 07:07:18;;;;;;;3.60;1.83;;;25.20;99.90;;;;;;5103037;28;20213;-77
2022/10/25 07:09:45;;;;;;;4.07;1.70;;;25.00;99.90;;;;;;5092365;28;20174;-75
2022/10/25 07:12:13;;;;;;;3.80;1.63;;;25.00;99.90;;;;;;5104525;28;20204;-77
2022/10/25 07:14:40;;;;;;;8.07;1.43;;;25.00;99.90;;;;;;5097187;28;20191;-74
2022/10/25 07:17:08;;;;;;;2.47;1.50;;;25.00;99.90;;;;;;5114573;28;20235;-76
2022/10/25 07:19:35;;;;;;;2.73;1.43;;;24.80;99.90;;;;;;5113783;28;20222;-77
2022/10/25 07:22:03;;;;;;;5.30;1.97;;;24.70;99.90;;;;;;5104318;28;20217;-77
2022/10/25 07:24:30;;;;;;;6.83;1.57;;;24.50;99.90;;;;;;5093079;28;20182;-78
2022/10/25 07:26:57;;;;;;;6.73;1.93;;;24.30;99.90;;;;;;5092322;28;20201;-77
2022/10/25 07:29:25;;;;;;;3.93;1.53;;;24.10;99.90;;;;;;5102537;28;20179;-78
2022/10/25 07:31:52;;;;;;;3.57;1.70;;;23.90;99.90;;;;;;5112251;28;20319;-78
2022/10/25 07:34:20;;;;;;;8.67;1.70;;;23.70;99.90;;;;;;5111266;28;20178;-78
2022/10/25 07:36:47;;;;;;;2.80;1.73;;;23.40;99.90;;;;;;5089991;28;20222;-78
2022/10/25 07:39:15;;;;;;;1.47;1.27;;;23.20;99.90;;;;;;5095630;28;20712;-79
2022/10/25 07:41:43;;;;;;;6.10;1.90;;;23.00;99.90;;;;;;5105638;28;20219;-78
2022/10/25 07:44:10;;;;;;;7.73;2.10;;;22.80;99.90;;;;;;5086895;28;20253;-78
2022/10/25 07:46:37;;;;;;;6.67;1.80;;;22.70;99.90;;;;;;5097207;28;20191;-78
2022/10/25 07:49:05;;;;;;;5.30;2.60;;;22.60;99.90;;;;;;5073556;28;20190;-77
2022/10/25 07:51:32;;;;;;;5.23;2.20;;;22.50;99.90;;;;;;5093107;28;20209;-76
2022/10/25 07:53:59;;;;;;;2.73;1.63;;;22.40;99.90;;;;;;5106452;28;20183;-78
2022/10/25 07:56:29;;;;;;;3.57;2.33;;;22.40;99.90;;;;;;5067209;28;20189;-75
2022/10/25 07:58:56;;;;;;;3.03;1.60;;;22.40;99.90;;;;;;5067961;28;20230;-78
2022/10/25 08:01:27;;;;;;;3.43;1.90;;;22.60;99.90;;;;;;5090382;28;20226;-77
2022/10/25 08:03:55;;;;;;;3.00;1.90;;;22.60;99.90;;;;;;5108252;28;20690;-77
2022/10/25 08:06:24;;;;;;;4.83;2.40;;;22.40;99.90;;;;;;5098533;28;20193;-77
2022/10/25 08:08:52;;;;;;;4.70;2.00;;;22.50;99.90;;;;;;5105407;28;20200;-77
2022/10/25 08:11:19;;;;;;;5.37;1.90;;;22.40;99.90;;;;;;5097566;28;20179;-76
2022/10/25 08:13:49;;;;;;;5.53;2.10;;;22.40;99.90;;;;;;5103570;28;20256;-79
2022/10/25 08:16:19;;;;;;;10.70;2.07;;;22.40;99.90;;;;;;5104411;28;20190;-77
2022/10/25 08:18:47;;;;;;;4.07;2.03;;;22.30;99.90;;;;;;5108612;28;20175;-77
2022/10/25 08:21:14;;;;;;;4.50;1.87;;;22.30;99.90;;;;;;5087289;28;20193;-77
2022/10/25 08:23:42;;;;;;;6.13;2.13;;;22.30;99.90;;;;;;5103787;28;20214;-79
2022/10/25 08:26:09;;;;;;;4.47;1.93;;;22.20;99.90;;;;;;5112518;28;20178;-76
2022/10/25 08:28:37;;;;;;;5.60;2.40;;;22.10;99.90;;;;;;5115169;28;20182;-77
2022/10/25 08:31:04;;;;;;;5.47;2.10;;;22.00;99.90;;;;;;5101365;28;20186;-76
2022/10/25 08:36:57;;;;;;;3.40;1.83;;;21.90;99.90;;;;;;5091252;28;20244;-75
2022/10/25 08:39:27;;;;;;;5.20;2.53;;;21.70;99.90;;;;;;5109219;28;20190;-78
2022/10/25 08:42:00;;;;;;;5.17;2.20;;;21.60;99.90;;;;;;5093489;28;20211;-78
2022/10/25 08:44:49;;;;;;;5.57;2.30;;;21.50;99.90;;;;;;5109255;28;20232;-76
2022/10/25 08:47:23;;;;;;;5.53;2.50;;;21.40;99.90;;;;;;5108697;28;20169;-79
2022/10/25 08:49:53;;;;;;;7.37;2.77;;;21.30;99.90;;;;;;5107136;28;20227;-76
2022/10/25 08:52:38;;;;;;;7.97;2.63;;;21.20;99.90;;;;;;5093128;28;20260;-77
2022/10/25 08:55:15;;;;;;;5.03;2.73;;;21.20;99.90;;;;;;5075253;28;20193;-76
2022/10/25 08:57:45;;;;;;;10.13;3.27;;;21.00;99.90;;;;;;5081186;28;20261;-76
2022/10/25 09:00:21;;;;;;;8.30;3.30;;;21.00;99.90;;;;;;5095767;28;20243;-75
2022/10/25 09:02:51;;;;;;;7.03;2.97;;;20.90;99.90;;;;;;5072242;28;20238;-76
2022/10/25 09:05:37;;;;;;;4.63;3.00;;;20.90;99.90;;;;;;5072680;28;20179;-77
2022/10/25 09:08:30;;;;;;;8.60;3.97;;;20.90;99.90;;;;;;5054692;28;20185;-77
2022/10/25 09:11:36;;;;;;;7.63;2.93;;;20.90;99.90;;;;;;5082804;28;20194;-77
2022/10/25 09:14:22;;;;;;;5.43;3.57;;;20.90;99.90;;;;;;5092974;28;20181;-77
2022/10/25 09:17:06;;;;;;;7.47;3.30;;;20.70;99.90;;;;;;5074607;28;20188;-76
2022/10/25 09:19:53;;;;;;;9.83;3.90;;;20.60;99.90;;;;;;5089470;28;21013;-79
2022/10/25 09:22:29;;;;;;;8.20;3.87;;;20.60;99.90;;;;;;5072321;28;20210;-77
2022/10/25 09:25:17;;;;;;;9.50;3.90;;;20.70;99.90;;;;;;5080972;28;20182;-77
2022/10/25 09:28:16;;;;;;;12.30;4.20;;;20.70;99.90;;;;;;5074616;28;20600;-77
2022/10/25 09:30:44;;;;;;;14.43;4.43;;;20.60;99.90;;;;;;5079647;28;20198;-77
2022/10/25 09:33:16;;;;;;;10.60;4.23;;;20.50;99.90;;;;;;5054518;28;20659;-76
2022/10/25 09:35:46;;;;;;;10.47;4.37;;;20.50;99.90;;;;;;5054382;28;20190;-76
2022/10/25 09:38:24;;;;;;;12.77;4.70;;;20.50;99.90;;;;;;5072403;28;20203;-77
2022/10/25 09:41:03;;;;;;;17.90;6.33;;;20.40;99.90;;;;;;5084944;28;20321;-76
2022/10/25 09:43:53;;;;;;;18.20;6.50;;;20.30;99.90;;;;;;5092450;28;20734;-77
2022/10/25 09:46:37;;;;;;;12.20;5.00;;;20.20;99.90;;;;;;5092316;28;20636;-77
2022/10/25 09:49:42;;;;;;;13.50;5.40;;;20.10;99.90;;;;;;5092382;28;20170;-77
2022/10/25 09:52:28;;;;;;;5.83;4.10;;;20.00;99.90;;;;;;5071076;28;20223;-78
2022/10/25 09:55:33;;;;;;;7.50;4.40;;;19.90;99.90;;;;;;5072018;28;20235;-78
2022/10/25 09:58:01;;;;;;;13.53;5.57;;;19.90;99.90;;;;;;5047920;28;20196;-78
2022/10/25 10:00:29;;;;;;;8.20;4.47;;;19.90;99.90;;;;;;5071758;28;20179;-77
2022/10/25 10:02:56;;;;;;;10.13;4.73;;;19.90;99.90;;;;;;5071800;28;20230;-78
2022/10/25 10:05:24;;;;;;;11.73;5.53;;;19.90;99.90;;;;;;5071093;28;20171;-78
2022/10/25 10:07:51;;;;;;;6.87;4.53;;;19.90;99.90;;;;;;5086493;28;20179;-75
2022/10/25 10:10:29;;;;;;;8.03;4.97;;;19.90;99.90;;;;;;5092952;28;20636;-75
2022/10/25 10:13:27;;;;;;;8.67;5.03;;;20.00;99.90;;;;;;5093339;28;20190;-75
2022/10/25 10:16:18;;;;;;;8.97;4.67;;;20.00;99.90;;;;;;5079953;28;20186;-75
2022/10/25 10:18:46;;;;;;;9.53;4.97;;;20.10;99.90;;;;;;5093427;28;20167;-75
2022/10/25 10:21:20;;;;;;;8.47;5.03;;;20.20;99.90;;;;;;5093348;28;20178;-75
2022/10/25 10:23:56;;;;;;;8.43;4.57;;;20.20;99.90;;;;;;5093252;28;20194;-75
2022/10/25 10:26:42;;;;;;;13.73;5.33;;;20.30;99.90;;;;;;5075057;28;20182;-76
2022/10/25 10:29:12;;;;;;;7.07;4.70;;;20.20;99.90;;;;;;5093545;28;20229;-75
2022/10/25 10:31:46;;;;;;;10.03;4.43;;;20.30;99.90;;;;;;5093300;28;20181;-76
2022/10/25 10:34:28;;;;;;;10.97;4.70;;;20.30;99.90;;;;;;5075160;28;20191;-75
2022/10/25 10:37:13;;;;;;;7.70;4.00;;;20.30;99.90;;;;;;5093044;28;20673;-75
2022/10/25 10:40:12;;;;;;;9.10;4.30;;;20.20;99.90;;;;;;5093244;28;20237;-75
2022/10/25 10:42:41;;;;;;;7.33;4.37;;;20.20;99.90;;;;;;5080151;28;20623;-75
2022/10/25 10:45:14;;;;;;;6.90;3.70;;;20.20;99.90;;;;;;5074928;28;20181;-75
2022/10/25 10:47:51;;;;;;;7.87;4.23;;;20.20;99.90;;;;;;5074875;28;20652;-75
2022/10/25 10:50:22;;;;;;;12.33;4.23;;;20.20;99.90;;;;;;5075072;28;20175;-75
2022/10/25 10:53:00;;;;;;;7.57;4.17;;;20.20;99.90;;;;;;5093168;28;20605;-75
2022/10/25 10:55:35;;;;;;;10.50;4.30;;;20.20;99.90;;;;;;5092640;28;20248;-76
2022/10/25 10:58:12;;;;;;;10.77;4.53;;;20.20;99.90;;;;;;5093176;28;20635;-75
2022/10/25 11:00:47;;;;;;;13.43;4.90;;;20.20;99.90;;;;;;5093291;28;20178;-75
2022/10/25 11:03:39;;;;;;;13.20;4.00;;;20.20;99.90;;;;;;5092905;28;20553;-75
2022/10/25 11:06:31;;;;;;;10.33;4.37;;;20.20;99.90;;;;;;5093021;28;20250;-75
2022/10/25 11:09:25;;;;;;;15.47;4.87;;;20.30;99.90;;;;;;5079256;28;20195;-75
2022/10/25 11:12:13;;;;;;;9.63;4.67;;;20.30;99.90;;;;;;5089518;28;20198;-75
2022/10/25 11:14:41;;;;;;;10.43;5.10;;;20.30;99.90;;;;;;5093049;28;20649;-76
2022/10/25 11:17:25;;;;;;;11.90;4.90;;;20.30;99.90;;;;;;5095203;28;20179;-76
2022/10/25 11:20:23;;;;;;;15.13;6.03;;;20.30;99.90;;;;;;5096759;28;20597;-76
2022/10/25 11:23:19;;;;;;;8.93;4.83;;;20.20;99.90;;;;;;5094233;28;20217;-75
2022/10/25 11:26:11;;;;;;;10.07;4.47;;;20.10;99.90;;;;;;5096657;28;20182;-75
2022/10/25 11:29:12;;;;;;;9.97;4.67;;;20.10;99.90;;;;;;5078335;28;20273;-75
2022/10/25 11:32:00;;;;;;;9.07;4.67;;;20.00;99.90;;;;;;5088333;28;20183;-76
2022/10/25 11:34:40;;;;;;;7.27;4.80;;;20.00;99.90;;;;;;5076177;28;20301;-75
2022/10/25 11:37:28;;;;;;;11.70;5.00;;;20.00;99.90;;;;;;5076361;28;20180;-76
2022/10/25 11:40:14;;;;;;;10.43;5.00;;;20.00;99.90;;;;;;5083109;28;20682;-76
2022/10/25 11:43:06;;;;;;;9.87;5.10;;;20.00;99.90;;;;;;5079778;28;20216;-75
2022/10/25 11:45:41;;;;;;;13.23;5.10;;;20.00;99.90;;;;;;5076252;28;20192;-76
2022/10/25 11:48:15;;;;;;;11.70;4.73;;;20.00;99.90;;;;;;5076036;28;20184;-76
2022/10/25 11:51:23;;;;;;;14.50;5.83;;;20.00;99.90;;;;;;5075948;28;20176;-76
2022/10/25 11:54:09;;;;;;;14.20;5.50;;;20.00;99.90;;;;;;5075884;28;20188;-76
2022/10/25 11:57:00;;;;;;;10.67;5.63;;;20.00;99.90;;;;;;5075648;28;20282;-76
2022/10/25 12:00:05;;;;;;;11.37;5.40;;;20.00;99.90;;;;;;5057732;28;20222;-75
2022/10/25 12:02:42;;;;;;;9.67;5.10;;;19.90;99.90;;;;;;5088083;28;20225;-75
2022/10/25 12:05:28;;;;;;;9.23;5.83;;;19.90;99.90;;;;;;5077745;28;20175;-76
2022/10/25 12:08:20;;;;;;;10.97;5.80;;;19.90;99.90;;;;;;5088489;28;20214;-76
2022/10/25 12:10:55;;;;;;;9.43;4.90;;;19.90;99.90;;;;;;5076109;28;20172;-76
2022/10/25 12:13:35;;;;;;;10.50;5.37;;;19.80;99.90;;;;;;5075508;28;20280;-76
2022/10/25 12:16:05;;;;;;;10.83;5.17;;;19.80;99.90;;;;;;5075337;28;20168;-77
2022/10/25 12:18:37;;;;;;;12.60;5.73;;;19.80;99.90;;;;;;5075283;28;20176;-76
2022/10/25 12:21:08;;;;;;;13.00;6.30;;;19.70;99.90;;;;;;5077649;28;20186;-77
2022/10/25 12:23:48;;;;;;;13.00;6.97;;;19.80;99.90;;;;;;5095592;28;20214;-76
2022/10/25 12:26:39;;;;;;;11.90;5.90;;;19.80;99.90;;;;;;5077369;28;20168;-77
2022/10/25 12:29:16;;;;;;;12.43;6.10;;;19.70;99.90;;;;;;5076570;28;20180;-76
2022/10/25 12:31:58;;;;;;;8.83;5.00;;;19.70;99.90;;;;;;5087069;28;20182;-76
2022/10/25 12:34:43;;;;;;;13.47;6.00;;;19.60;99.90;;;;;;5057231;28;20176;-77
2022/10/25 12:37:29;;;;;;;16.40;6.43;;;19.60;99.90;;;;;;5092043;28;20190;-77
2022/10/25 12:39:57;;;;;;;11.60;5.80;;;19.50;99.90;;;;;;5095384;28;20171;-76
2022/10/25 12:42:37;;;;;;;12.73;6.07;;;19.50;99.90;;;;;;5081347;28;20294;-77
2022/10/25 12:45:23;;;;;;;11.17;5.77;;;19.50;99.90;;;;;;5074929;28;20677;-76
2022/10/25 12:48:14;;;;;;;9.13;5.77;;;19.40;99.90;;;;;;5088640;28;20206;-76
2022/10/25 12:51:05;;;;;;;12.07;5.93;;;19.50;99.90;;;;;;5094592;28;20262;-76
2022/10/25 12:53:48;;;;;;;10.87;5.60;;;19.40;99.90;;;;;;5074859;28;20203;-76
2022/10/25 12:56:28;;;;;;;10.50;6.40;;;19.40;99.90;;;;;;5059707;28;20320;-76
2022/10/25 12:59:15;;;;;;;11.30;6.67;;;19.30;99.90;;;;;;5095588;28;20174;-75
2022/10/25 13:02:14;;;;;;;13.77;6.50;;;19.20;99.90;;;;;;5092864;28;20229;-77
2022/10/25 13:05:00;;;;;;;12.53;6.83;;;19.30;99.90;;;;;;5094713;28;20175;-76
2022/10/25 13:07:33;;;;;;;12.83;6.20;;;19.30;99.90;;;;;;5094562;28;20764;-75
2022/10/25 13:10:16;;;;;;;12.83;5.80;;;19.40;99.90;;;;;;5095104;28;20240;-77
2022/10/25 13:13:02;;;;;;;10.27;5.47;;;19.40;99.90;;;;;;5077497;28;20182;-76
2022/10/25 13:15:51;;;;;;;12.07;6.50;;;19.40;99.90;;;;;;5074230;28;20535;-77
2022/10/25 13:18:39;;;;;;;9.73;5.97;;;19.40;99.90;;;;;;5074823;28;20177;-77
2022/10/25 13:21:36;;;;;;;7.63;6.13;;;19.40;99.90;;;;;;5078716;28;20217;-78
2022/10/25 13:24:05;;;;;;;11.17;6.13;;;19.40;99.90;;;;;;5094142;28;20196;-77
2022/10/25 13:26:53;;;;;;;14.27;6.97;;;19.40;99.90;;;;;;5094386;28;20219;-77
2022/10/25 13:29:46;;;;;;;12.67;7.07;;;19.40;99.90;;;;;;5089834;28;20684;-76
2022/10/25 13:32:20;;;;;;;16.10;8.03;;;19.40;99.90;;;;;;5044586;28;20199;-76
2022/10/25 13:34:48;;;;;;;18.10;10.53;;;19.40;99.90;;;;;;5073930;28;20178;-77
2022/10/25 13:37:31;;;;;;;18.70;11.37;;;19.30;99.90;;;;;;5073809;28;20195;-77
2022/10/25 13:40:18;;;;;;;21.50;11.47;;;19.30;99.90;;;;;;5074352;28;20217;-77
2022/10/25 13:43:10;;;;;;;16.80;10.23;;;19.30;99.90;;;;;;5091623;28;20221;-77
2022/10/25 13:45:44;;;;;;;14.20;9.33;;;19.10;99.90;;;;;;5054939;28;20199;-75
2022/10/25 13:48:14;;;;;;;16.03;8.23;;;19.20;99.90;;;;;;5073678;28;20172;-75